createdAt,value
2023-02-27T00:00:32.585Z,1022.1107132039999
2023-02-27T00:01:32.627Z,1022.2123045679999
2023-02-27T00:02:32.630Z,1022.00912184
2023-02-27T00:03:32.613Z,1022.1107132039999
2023-02-27T00:04:32.583Z,1022.00912184
2023-02-27T00:05:32.586Z,1021.9075304759999
2023-02-27T00:06:32.592Z,1022.00912184
2023-02-27T00:07:32.564Z,1022.1107132039999
2023-02-27T00:08:32.613Z,1022.1107132039999
2023-02-27T00:09:33.110Z,1022.00912184
2023-02-27T00:10:32.544Z,1022.00912184
2023-02-27T00:11:32.625Z,1022.00912184
2023-02-27T00:12:32.606Z,1022.313895932
2023-02-27T00:13:32.600Z,1022.2123045679999
2023-02-27T00:14:32.588Z,1022.1107132039999
2023-02-27T00:15:32.589Z,1022.2123045679999
2023-02-27T00:16:32.584Z,1022.2123045679999
2023-02-27T00:17:32.592Z,1022.2123045679999
2023-02-27T00:18:32.547Z,1022.415487296
2023-02-27T00:19:33.082Z,1022.00912184
2023-02-27T00:20:32.579Z,1022.313895932
2023-02-27T00:21:32.690Z,1022.2123045679999
2023-02-27T00:22:32.596Z,1022.415487296
2023-02-27T00:23:32.607Z,1022.313895932
2023-02-27T00:24:32.650Z,1022.313895932
2023-02-27T00:25:32.552Z,1022.2123045679999
2023-02-27T00:26:32.563Z,1022.2123045679999
2023-02-27T00:27:32.611Z,1022.313895932
2023-02-27T00:28:32.559Z,1022.313895932
2023-02-27T00:29:33.138Z,1022.313895932
2023-02-27T00:30:32.589Z,1022.313895932
2023-02-27T00:31:32.748Z,1022.313895932
2023-02-27T00:32:32.627Z,1022.313895932
2023-02-27T00:33:32.581Z,1022.415487296
2023-02-27T00:34:32.564Z,1022.415487296
2023-02-27T00:35:32.683Z,1022.313895932
2023-02-27T00:36:32.575Z,1022.415487296
2023-02-27T00:37:32.590Z,1022.5170786599999
2023-02-27T00:38:32.575Z,1022.313895932
2023-02-27T00:39:32.576Z,1022.5170786599999
2023-02-27T00:40:32.599Z,1022.415487296
2023-02-27T00:41:32.557Z,1022.5170786599999
2023-02-27T00:42:32.567Z,1022.720261388
2023-02-27T00:43:32.560Z,1022.5170786599999
2023-02-27T00:44:32.602Z,1022.313895932
2023-02-27T00:45:32.607Z,1022.618670024
2023-02-27T00:46:32.672Z,1022.618670024
2023-02-27T00:47:32.596Z,1022.720261388
2023-02-27T00:48:32.598Z,1022.618670024
2023-02-27T00:49:32.568Z,1022.313895932
2023-02-27T00:50:32.571Z,1022.2123045679999
2023-02-27T00:51:32.580Z,1022.415487296
2023-02-27T00:52:32.574Z,1022.313895932
2023-02-27T00:53:32.560Z,1022.415487296
2023-02-27T00:54:32.563Z,1022.5170786599999
2023-02-27T00:55:32.580Z,1022.5170786599999
2023-02-27T00:56:32.551Z,1022.415487296
2023-02-27T00:57:32.658Z,1022.5170786599999
2023-02-27T00:58:32.548Z,1022.415487296
2023-02-27T00:59:32.577Z,1022.415487296
2023-02-27T01:00:32.624Z,1022.415487296
2023-02-27T01:01:32.568Z,1022.415487296
2023-02-27T01:02:32.601Z,1022.415487296
2023-02-27T01:03:32.647Z,1022.2123045679999
2023-02-27T01:04:32.553Z,1022.415487296
2023-02-27T01:05:32.565Z,1022.415487296
2023-02-27T01:06:32.531Z,1022.313895932
2023-02-27T01:07:32.580Z,1022.415487296
2023-02-27T01:08:32.577Z,1022.2123045679999
2023-02-27T01:09:33.209Z,1022.720261388
2023-02-27T01:10:32.542Z,1022.2123045679999
2023-02-27T01:11:32.622Z,1022.5170786599999
2023-02-27T01:12:32.583Z,1022.5170786599999
2023-02-27T01:13:32.556Z,1022.5170786599999
2023-02-27T01:14:32.577Z,1022.5170786599999
2023-02-27T01:15:32.662Z,1022.618670024
2023-02-27T01:16:32.644Z,1022.5170786599999
2023-02-27T01:17:32.559Z,1022.415487296
2023-02-27T01:18:32.559Z,1022.618670024
2023-02-27T01:19:33.033Z,1022.5170786599999
2023-02-27T01:20:32.587Z,1022.5170786599999
2023-02-27T01:21:32.563Z,1022.415487296
2023-02-27T01:22:32.587Z,1022.415487296
2023-02-27T01:23:32.538Z,1022.618670024
2023-02-27T01:24:32.720Z,1022.618670024
2023-02-27T01:25:32.702Z,1022.5170786599999
2023-02-27T01:26:32.566Z,1022.618670024
2023-02-27T01:27:32.583Z,1022.5170786599999
2023-02-27T01:28:32.564Z,1022.415487296
2023-02-27T01:29:33.404Z,1022.618670024
2023-02-27T01:30:32.648Z,1022.618670024
2023-02-27T01:31:32.629Z,1022.415487296
2023-02-27T01:32:32.580Z,1022.618670024
2023-02-27T01:33:32.580Z,1022.5170786599999
2023-02-27T01:34:34.255Z,1022.5170786599999
2023-02-27T01:35:32.712Z,1022.618670024
2023-02-27T01:36:32.576Z,1022.415487296
2023-02-27T01:37:32.568Z,1022.618670024
2023-02-27T01:38:32.616Z,1022.313895932
2023-02-27T01:39:32.562Z,1022.720261388
2023-02-27T01:40:32.716Z,1022.313895932
2023-02-27T01:41:32.655Z,1022.415487296
2023-02-27T01:42:32.746Z,1022.5170786599999
2023-02-27T01:43:32.694Z,1022.415487296
2023-02-27T01:44:32.707Z,1022.415487296
2023-02-27T01:45:32.781Z,1022.618670024
2023-02-27T01:46:32.683Z,1022.5170786599999
2023-02-27T01:47:32.835Z,1022.5170786599999
2023-02-27T01:48:32.665Z,1022.5170786599999
2023-02-27T01:49:33.019Z,1022.720261388
2023-02-27T01:50:32.766Z,1022.415487296
2023-02-27T01:51:32.732Z,1022.5170786599999
2023-02-27T01:52:32.683Z,1022.618670024
2023-02-27T01:53:32.697Z,1022.5170786599999
2023-02-27T01:54:32.768Z,1022.415487296
2023-02-27T01:55:32.601Z,1022.5170786599999
2023-02-27T01:56:32.583Z,1022.5170786599999
2023-02-27T01:57:32.583Z,1022.618670024
2023-02-27T01:58:32.576Z,1022.5170786599999
2023-02-27T01:59:32.564Z,1022.618670024
2023-02-27T02:00:32.583Z,1022.415487296
2023-02-27T02:01:32.667Z,1022.5170786599999
2023-02-27T02:02:32.663Z,1022.720261388
2023-02-27T02:03:32.563Z,1022.720261388
2023-02-27T02:04:32.588Z,1022.618670024
2023-02-27T02:05:32.558Z,1022.618670024
2023-02-27T02:06:32.573Z,1022.720261388
2023-02-27T02:07:32.561Z,1022.618670024
2023-02-27T02:08:32.566Z,1022.618670024
2023-02-27T02:09:33.333Z,1022.720261388
2023-02-27T02:10:32.548Z,1022.8218527519999
2023-02-27T02:11:32.540Z,1022.720261388
2023-02-27T02:12:32.563Z,1023.02503548
2023-02-27T02:13:32.558Z,1022.8218527519999
2023-02-27T02:14:32.600Z,1022.923444116
2023-02-27T02:15:32.556Z,1022.923444116
2023-02-27T02:16:32.647Z,1022.720261388
2023-02-27T02:17:32.570Z,1022.720261388
2023-02-27T02:18:32.578Z,1022.720261388
2023-02-27T02:19:33.276Z,1022.8218527519999
2023-02-27T02:20:32.547Z,1022.923444116
2023-02-27T02:21:32.578Z,1023.1266268439999
2023-02-27T02:22:32.556Z,1022.8218527519999
2023-02-27T02:23:32.578Z,1022.923444116
2023-02-27T02:24:32.615Z,1022.720261388
2023-02-27T02:25:32.587Z,1022.8218527519999
2023-02-27T02:26:33.597Z,1022.923444116
2023-02-27T02:27:32.573Z,1022.720261388
2023-02-27T02:28:32.532Z,1022.8218527519999
2023-02-27T02:29:32.588Z,1022.923444116
2023-02-27T02:30:32.647Z,1022.923444116
2023-02-27T02:31:32.789Z,1022.720261388
2023-02-27T02:32:32.616Z,1022.8218527519999
2023-02-27T02:33:32.580Z,1023.02503548
2023-02-27T02:34:32.580Z,1022.8218527519999
2023-02-27T02:35:32.578Z,1022.8218527519999
2023-02-27T02:36:32.580Z,1022.618670024
2023-02-27T02:37:32.591Z,1022.8218527519999
2023-02-27T02:38:32.567Z,1022.923444116
2023-02-27T02:39:33.065Z,1022.923444116
2023-02-27T02:40:32.570Z,1022.923444116
2023-02-27T02:41:32.562Z,1022.8218527519999
2023-02-27T02:42:32.564Z,1022.923444116
2023-02-27T02:43:32.558Z,1023.02503548
2023-02-27T02:44:32.624Z,1022.923444116
2023-02-27T02:45:32.584Z,1023.02503548
2023-02-27T02:46:32.557Z,1022.923444116
2023-02-27T02:47:32.568Z,1023.1266268439999
2023-02-27T02:48:32.553Z,1023.02503548
2023-02-27T02:49:32.597Z,1022.923444116
2023-02-27T02:50:32.555Z,1022.923444116
2023-02-27T02:51:32.559Z,1022.923444116
2023-02-27T02:52:32.589Z,1023.228218208
2023-02-27T02:53:37.125Z,1023.02503548
2023-02-27T02:54:32.550Z,1023.329809572
2023-02-27T02:55:32.722Z,1022.923444116
2023-02-27T02:56:32.566Z,1023.02503548
2023-02-27T02:57:32.559Z,1022.923444116
2023-02-27T02:58:32.571Z,1022.8218527519999
2023-02-27T02:59:32.977Z,1022.923444116
2023-02-27T03:00:32.578Z,1023.02503548
2023-02-27T03:01:32.766Z,1023.02503548
2023-02-27T03:02:32.563Z,1022.923444116
2023-02-27T03:03:32.574Z,1022.8218527519999
2023-02-27T03:04:32.700Z,1022.923444116
2023-02-27T03:05:32.591Z,1022.8218527519999
2023-02-27T03:06:32.575Z,1022.923444116
2023-02-27T03:07:32.689Z,1022.720261388
2023-02-27T03:08:32.540Z,1023.02503548
2023-02-27T03:09:32.600Z,1022.8218527519999
2023-02-27T03:10:32.600Z,1023.431400936
2023-02-27T03:11:32.555Z,1022.923444116
2023-02-27T03:12:32.606Z,1022.923444116
2023-02-27T03:13:32.683Z,1022.923444116
2023-02-27T03:14:32.711Z,1023.02503548
2023-02-27T03:15:32.567Z,1023.02503548
2023-02-27T03:16:32.689Z,1023.02503548
2023-02-27T03:17:32.713Z,1023.02503548
2023-02-27T03:18:32.553Z,1023.02503548
2023-02-27T03:19:32.529Z,1023.02503548
2023-02-27T03:20:32.695Z,1023.1266268439999
2023-02-27T03:21:32.580Z,1023.1266268439999
2023-02-27T03:22:32.557Z,1023.1266268439999
2023-02-27T03:23:32.661Z,1023.228218208
2023-02-27T03:24:32.614Z,1023.1266268439999
2023-02-27T03:25:32.717Z,1023.02503548
2023-02-27T03:26:32.534Z,1023.228218208
2023-02-27T03:27:32.528Z,1023.02503548
2023-02-27T03:28:32.564Z,1023.02503548
2023-02-27T03:29:32.679Z,1023.329809572
2023-02-27T03:30:32.603Z,1023.02503548
2023-02-27T03:31:32.693Z,1022.923444116
2023-02-27T03:32:32.602Z,1023.329809572
2023-02-27T03:33:32.561Z,1023.634583664
2023-02-27T03:34:32.685Z,1023.228218208
2023-02-27T03:35:32.640Z,1023.329809572
2023-02-27T03:36:32.710Z,1023.02503548
2023-02-27T03:37:32.609Z,1023.329809572
2023-02-27T03:38:32.647Z,1023.329809572
2023-02-27T03:39:32.607Z,1023.228218208
2023-02-27T03:40:32.875Z,1023.431400936
2023-02-27T03:41:32.659Z,1023.228218208
2023-02-27T03:42:32.569Z,1023.329809572
2023-02-27T03:43:32.644Z,1023.329809572
2023-02-27T03:44:32.699Z,1023.329809572
2023-02-27T03:45:32.714Z,1023.431400936
2023-02-27T03:46:32.581Z,1023.431400936
2023-02-27T03:47:32.622Z,1023.431400936
2023-02-27T03:48:32.605Z,1023.5329923
2023-02-27T03:49:32.701Z,1023.228218208
2023-02-27T03:50:32.528Z,1023.431400936
2023-02-27T03:51:32.654Z,1023.431400936
2023-02-27T03:52:32.597Z,1023.431400936
2023-02-27T03:53:32.531Z,1023.634583664
2023-02-27T03:54:32.526Z,1023.5329923
2023-02-27T03:55:32.648Z,1023.329809572
2023-02-27T03:56:32.541Z,1023.634583664
2023-02-27T03:57:32.532Z,1023.431400936
2023-02-27T03:58:32.585Z,1023.431400936
2023-02-27T03:59:32.525Z,1023.431400936
2023-02-27T04:00:32.545Z,1023.431400936
2023-02-27T04:01:32.601Z,1023.431400936
2023-02-27T04:02:32.600Z,1023.431400936
2023-02-27T04:03:32.582Z,1023.329809572
2023-02-27T04:04:32.591Z,1023.329809572
2023-02-27T04:05:32.565Z,1023.329809572
2023-02-27T04:06:32.551Z,1023.329809572
2023-02-27T04:07:32.553Z,1023.431400936
2023-02-27T04:08:32.560Z,1023.736175028
2023-02-27T04:09:33.469Z,1023.431400936
2023-02-27T04:10:32.560Z,1023.5329923
2023-02-27T04:11:32.545Z,1023.431400936
2023-02-27T04:12:32.545Z,1023.431400936
2023-02-27T04:13:32.547Z,1023.5329923
2023-02-27T04:14:32.530Z,1023.431400936
2023-02-27T04:15:32.532Z,1023.431400936
2023-02-27T04:16:32.562Z,1023.329809572
2023-02-27T04:17:32.564Z,1023.5329923
2023-02-27T04:18:32.550Z,1023.5329923
2023-02-27T04:19:32.547Z,1023.634583664
2023-02-27T04:20:32.542Z,1023.329809572
2023-02-27T04:21:32.582Z,1023.431400936
2023-02-27T04:22:32.569Z,1023.5329923
2023-02-27T04:23:32.516Z,1023.634583664
2023-02-27T04:24:32.514Z,1023.5329923
2023-02-27T04:25:32.541Z,1023.736175028
2023-02-27T04:26:32.525Z,1023.837766392
2023-02-27T04:27:32.521Z,1023.431400936
2023-02-27T04:28:32.520Z,1023.5329923
2023-02-27T04:29:33.415Z,1023.634583664
2023-02-27T04:30:32.598Z,1023.634583664
2023-02-27T04:31:32.644Z,1023.736175028
2023-02-27T04:32:32.663Z,1023.736175028
2023-02-27T04:33:32.546Z,1023.5329923
2023-02-27T04:34:32.576Z,1023.634583664
2023-02-27T04:35:32.549Z,1023.736175028
2023-02-27T04:36:32.512Z,1023.634583664
2023-02-27T04:37:32.571Z,1023.634583664
2023-02-27T04:38:32.562Z,1023.736175028
2023-02-27T04:39:33.282Z,1023.634583664
2023-02-27T04:40:32.536Z,1023.736175028
2023-02-27T04:41:32.613Z,1023.634583664
2023-02-27T04:42:32.597Z,1023.431400936
2023-02-27T04:43:32.563Z,1023.634583664
2023-02-27T04:44:32.532Z,1023.5329923
2023-02-27T04:45:32.613Z,1023.634583664
2023-02-27T04:46:32.566Z,1023.634583664
2023-02-27T04:47:32.527Z,1023.736175028
2023-02-27T04:48:32.521Z,1023.736175028
2023-02-27T04:49:32.568Z,1023.634583664
2023-02-27T04:50:32.540Z,1023.736175028
2023-02-27T04:51:32.546Z,1023.634583664
2023-02-27T04:52:32.536Z,1023.837766392
2023-02-27T04:53:32.565Z,1023.736175028
2023-02-27T04:54:32.569Z,1023.634583664
2023-02-27T04:55:32.556Z,1023.736175028
2023-02-27T04:56:32.553Z,1023.634583664
2023-02-27T04:57:32.576Z,1023.837766392
2023-02-27T04:58:32.565Z,1023.736175028
2023-02-27T04:59:32.526Z,1023.837766392
2023-02-27T05:00:32.555Z,1023.736175028
2023-02-27T05:01:32.590Z,1023.634583664
2023-02-27T05:02:32.716Z,1023.837766392
2023-02-27T05:03:32.565Z,1023.837766392
2023-02-27T05:04:32.544Z,1023.634583664
2023-02-27T05:05:32.558Z,1023.634583664
2023-02-27T05:06:32.564Z,1023.837766392
2023-02-27T05:07:32.530Z,1023.736175028
2023-02-27T05:08:32.545Z,1023.634583664
2023-02-27T05:09:33.740Z,1023.736175028
2023-02-27T05:10:32.540Z,1023.634583664
2023-02-27T05:11:32.508Z,1023.736175028
2023-02-27T05:12:32.520Z,1023.837766392
2023-02-27T05:13:32.565Z,1023.5329923
2023-02-27T05:14:32.558Z,1024.007085332
2023-02-27T05:15:32.547Z,1023.736175028
2023-02-27T05:16:32.644Z,1023.5329923
2023-02-27T05:17:32.567Z,1023.837766392
2023-02-27T05:18:32.662Z,1023.736175028
2023-02-27T05:19:32.530Z,1023.736175028
2023-02-27T05:20:32.579Z,1023.837766392
2023-02-27T05:21:32.562Z,1023.736175028
2023-02-27T05:22:32.524Z,1023.9393577559999
2023-02-27T05:23:32.517Z,1023.9393577559999
2023-02-27T05:24:32.585Z,1023.634583664
2023-02-27T05:25:32.602Z,1023.736175028
2023-02-27T05:26:32.524Z,1023.736175028
2023-02-27T05:27:32.565Z,1023.9393577559999
2023-02-27T05:28:32.609Z,1023.837766392
2023-02-27T05:29:33.868Z,1023.837766392
2023-02-27T05:30:32.534Z,1023.837766392
2023-02-27T05:31:32.599Z,1023.634583664
2023-02-27T05:32:32.580Z,1023.736175028
2023-02-27T05:33:32.523Z,1023.837766392
2023-02-27T05:34:32.524Z,1023.634583664
2023-02-27T05:35:32.611Z,1023.634583664
2023-02-27T05:36:32.561Z,1023.5329923
2023-02-27T05:37:32.535Z,1023.837766392
2023-02-27T05:38:32.525Z,1023.837766392
2023-02-27T05:39:35.202Z,1023.837766392
2023-02-27T05:40:32.592Z,1023.634583664
2023-02-27T05:41:32.518Z,1023.736175028
2023-02-27T05:42:32.551Z,1023.736175028
2023-02-27T05:43:32.535Z,1023.837766392
2023-02-27T05:44:32.573Z,1023.736175028
2023-02-27T05:45:32.603Z,1023.837766392
2023-02-27T05:46:32.539Z,1023.9393577559999
2023-02-27T05:47:32.506Z,1024.21026806
2023-02-27T05:48:32.568Z,1023.837766392
2023-02-27T05:49:32.559Z,1023.9393577559999
2023-02-27T05:50:32.569Z,1024.007085332
2023-02-27T05:51:32.548Z,1023.9393577559999
2023-02-27T05:52:32.537Z,1023.9393577559999
2023-02-27T05:53:32.529Z,1023.837766392
2023-02-27T05:54:32.532Z,1023.837766392
2023-02-27T05:55:32.531Z,1023.837766392
2023-02-27T05:56:32.628Z,1023.736175028
2023-02-27T05:57:32.515Z,1023.837766392
2023-02-27T05:58:32.532Z,1023.634583664
2023-02-27T05:59:33.893Z,1023.634583664
2023-02-27T06:00:32.543Z,1023.736175028
2023-02-27T06:01:32.520Z,1023.736175028
2023-02-27T06:02:32.655Z,1023.634583664
2023-02-27T06:03:32.623Z,1023.736175028
2023-02-27T06:04:32.720Z,1023.634583664
2023-02-27T06:05:32.522Z,1023.736175028
2023-02-27T06:06:32.564Z,1023.634583664
2023-02-27T06:07:32.572Z,1023.5329923
2023-02-27T06:08:32.544Z,1023.634583664
2023-02-27T06:09:32.495Z,1023.837766392
2023-02-27T06:10:32.581Z,1023.736175028
2023-02-27T06:11:32.524Z,1023.837766392
2023-02-27T06:12:32.571Z,1023.736175028
2023-02-27T06:13:32.532Z,1023.9393577559999
2023-02-27T06:14:32.581Z,1023.736175028
2023-02-27T06:15:32.560Z,1023.837766392
2023-02-27T06:16:32.585Z,1023.634583664
2023-02-27T06:17:32.555Z,1023.736175028
2023-02-27T06:18:32.538Z,1023.634583664
2023-02-27T06:19:33.705Z,1023.837766392
2023-02-27T06:20:32.535Z,1023.837766392
2023-02-27T06:21:32.553Z,1023.837766392
2023-02-27T06:22:32.545Z,1023.837766392
2023-02-27T06:23:32.542Z,1023.634583664
2023-02-27T06:24:32.597Z,1024.007085332
2023-02-27T06:25:32.520Z,1023.837766392
2023-02-27T06:26:32.571Z,1023.736175028
2023-02-27T06:27:32.662Z,1024.007085332
2023-02-27T06:28:32.660Z,1023.736175028
2023-02-27T06:29:32.519Z,1023.9393577559999
2023-02-27T06:30:32.594Z,1024.007085332
2023-02-27T06:31:32.509Z,1024.21026806
2023-02-27T06:32:32.544Z,1024.108676696
2023-02-27T06:33:32.534Z,1023.9393577559999
2023-02-27T06:34:32.514Z,1024.108676696
2023-02-27T06:35:32.740Z,1024.108676696
2023-02-27T06:36:32.526Z,1024.108676696
2023-02-27T06:37:32.519Z,1024.413450788
2023-02-27T06:38:32.535Z,1024.108676696
2023-02-27T06:39:32.510Z,1023.837766392
2023-02-27T06:40:32.558Z,1024.108676696
2023-02-27T06:41:32.507Z,1024.007085332
2023-02-27T06:42:32.546Z,1024.007085332
2023-02-27T06:43:32.496Z,1024.21026806
2023-02-27T06:44:32.512Z,1024.108676696
2023-02-27T06:45:32.510Z,1024.108676696
2023-02-27T06:46:32.598Z,1023.9393577559999
2023-02-27T06:47:32.510Z,1024.007085332
2023-02-27T06:48:32.547Z,1024.108676696
2023-02-27T06:49:34.110Z,1024.007085332
2023-02-27T06:50:32.590Z,1024.007085332
2023-02-27T06:51:32.572Z,1024.007085332
2023-02-27T06:52:32.572Z,1024.108676696
2023-02-27T06:53:32.497Z,1024.108676696
2023-02-27T06:54:32.581Z,1023.431400936
2023-02-27T06:55:32.588Z,1023.329809572
2023-02-27T06:56:32.559Z,1023.5329923
2023-02-27T06:57:32.506Z,1023.431400936
2023-02-27T06:58:32.536Z,1023.5329923
2023-02-27T06:59:32.968Z,1024.108676696
2023-02-27T07:00:32.557Z,1024.007085332
2023-02-27T07:01:32.579Z,1024.108676696
2023-02-27T07:02:32.538Z,1024.007085332
2023-02-27T07:03:32.613Z,1023.9393577559999
2023-02-27T07:04:32.605Z,1023.9393577559999
2023-02-27T07:05:32.490Z,1023.837766392
2023-02-27T07:07:36.212Z,1024.108676696
2023-02-27T07:07:37.477Z,1024.007085332
2023-02-27T07:08:32.573Z,1024.007085332
2023-02-27T07:09:32.504Z,1024.007085332
2023-02-27T07:10:32.531Z,1023.9393577559999
2023-02-27T07:11:32.509Z,1024.007085332
2023-02-27T07:12:32.582Z,1023.9393577559999
2023-02-27T07:13:32.552Z,1024.311859424
2023-02-27T07:14:32.541Z,1024.108676696
2023-02-27T07:15:32.523Z,1024.108676696
2023-02-27T07:16:32.578Z,1024.007085332
2023-02-27T07:17:32.510Z,1024.21026806
2023-02-27T07:18:32.540Z,1024.007085332
2023-02-27T07:19:32.489Z,1024.21026806
2023-02-27T07:20:32.522Z,1024.21026806
2023-02-27T07:21:32.508Z,1024.007085332
2023-02-27T07:22:32.538Z,1024.21026806
2023-02-27T07:23:32.662Z,1024.108676696
2023-02-27T07:24:32.545Z,1024.108676696
2023-02-27T07:25:32.513Z,1024.21026806
2023-02-27T07:26:32.522Z,1024.311859424
2023-02-27T07:27:32.521Z,1024.007085332
2023-02-27T07:28:32.646Z,1023.9393577559999
2023-02-27T07:29:32.502Z,1024.311859424
2023-02-27T07:30:32.549Z,1024.108676696
2023-02-27T07:31:32.614Z,1024.311859424
2023-02-27T07:32:32.548Z,1024.311859424
2023-02-27T07:33:32.522Z,1024.311859424
2023-02-27T07:34:32.521Z,1024.413450788
2023-02-27T07:35:32.550Z,1024.311859424
2023-02-27T07:36:32.538Z,1024.311859424
2023-02-27T07:37:32.500Z,1024.311859424
2023-02-27T07:38:32.500Z,1024.311859424
2023-02-27T07:39:32.576Z,1024.71822488
2023-02-27T07:40:32.588Z,1024.413450788
2023-02-27T07:41:32.574Z,1024.108676696
2023-02-27T07:42:32.531Z,1024.311859424
2023-02-27T07:43:32.513Z,1024.311859424
2023-02-27T07:44:32.546Z,1024.413450788
2023-02-27T07:45:32.505Z,1024.413450788
2023-02-27T07:46:32.610Z,1024.5150421520002
2023-02-27T07:47:32.527Z,1024.311859424
2023-02-27T07:48:32.573Z,1024.21026806
2023-02-27T07:49:32.583Z,1024.5150421520002
2023-02-27T07:50:32.538Z,1024.413450788
2023-02-27T07:51:32.492Z,1024.413450788
2023-02-27T07:52:32.545Z,1024.413450788
2023-02-27T07:53:32.585Z,1024.21026806
2023-02-27T07:54:35.323Z,1024.616633516
2023-02-27T07:55:32.539Z,1024.413450788
2023-02-27T07:56:32.528Z,1024.413450788
2023-02-27T07:57:32.512Z,1024.311859424
2023-02-27T07:58:32.532Z,1024.5150421520002
2023-02-27T07:59:32.553Z,1024.311859424
2023-02-27T08:00:32.551Z,1024.311859424
2023-02-27T08:01:32.543Z,1024.413450788
2023-02-27T08:02:32.646Z,1024.311859424
2023-02-27T08:03:32.515Z,1024.5150421520002
2023-02-27T08:04:32.536Z,1024.616633516
2023-02-27T08:05:32.502Z,1024.5150421520002
2023-02-27T08:06:32.525Z,1024.616633516
2023-02-27T08:07:32.522Z,1024.311859424
2023-02-27T08:08:32.553Z,1024.413450788
2023-02-27T08:09:32.599Z,1024.616633516
2023-02-27T08:10:32.589Z,1024.5150421520002
2023-02-27T08:11:32.512Z,1024.71822488
2023-02-27T08:12:32.523Z,1024.5150421520002
2023-02-27T08:14:02.564Z,1024.616633516
2023-02-27T08:14:32.580Z,1024.413450788
2023-02-27T08:15:32.524Z,1024.413450788
2023-02-27T08:16:33.030Z,1024.71822488
2023-02-27T08:17:32.509Z,1024.819816244
2023-02-27T08:18:34.278Z,1024.616633516
2023-02-27T08:19:32.716Z,1024.616633516
2023-02-27T08:20:32.578Z,1024.5150421520002
2023-02-27T08:21:32.563Z,1024.5150421520002
2023-02-27T08:22:32.529Z,1024.616633516
2023-02-27T08:23:32.538Z,1024.5150421520002
2023-02-27T08:24:32.513Z,1024.71822488
2023-02-27T08:25:32.529Z,1024.819816244
2023-02-27T08:26:32.515Z,1024.616633516
2023-02-27T08:27:32.507Z,1024.9214076079998
2023-02-27T08:28:32.533Z,1024.616633516
2023-02-27T08:29:32.552Z,1024.819816244
2023-02-27T08:30:32.522Z,1024.819816244
2023-02-27T08:31:32.647Z,1025.0229989719999
2023-02-27T08:32:32.598Z,1024.9214076079998
2023-02-27T08:33:32.540Z,1024.9214076079998
2023-02-27T08:34:32.505Z,1024.9214076079998
2023-02-27T08:35:32.663Z,1024.9214076079998
2023-02-27T08:36:32.512Z,1024.819816244
2023-02-27T08:37:32.561Z,1025.0229989719999
2023-02-27T08:38:32.532Z,1025.0229989719999
2023-02-27T08:39:34.091Z,1025.0229989719999
2023-02-27T08:40:32.561Z,1024.819816244
2023-02-27T08:41:32.534Z,1025.0229989719999
2023-02-27T08:42:32.517Z,1024.9214076079998
2023-02-27T08:43:32.510Z,1025.124590336
2023-02-27T08:44:32.493Z,1024.9214076079998
2023-02-27T08:45:32.585Z,1025.0229989719999
2023-02-27T08:46:32.522Z,1025.124590336
2023-02-27T08:47:32.509Z,1025.0229989719999
2023-02-27T08:48:32.537Z,1025.2261816999999
2023-02-27T08:49:32.502Z,1025.0229989719999
2023-02-27T08:50:32.537Z,1025.2261816999999
2023-02-27T08:51:32.511Z,1025.2261816999999
2023-02-27T08:52:32.514Z,1025.2261816999999
2023-02-27T08:53:32.537Z,1025.124590336
2023-02-27T08:54:32.528Z,1025.0229989719999
2023-02-27T08:55:32.559Z,1025.2261816999999
2023-02-27T08:56:32.503Z,1025.327773064
2023-02-27T08:57:32.551Z,1025.4293644279999
2023-02-27T08:58:32.521Z,1025.2261816999999
2023-02-27T08:59:33.813Z,1025.2261816999999
2023-02-27T09:00:32.521Z,1025.327773064
2023-02-27T09:01:32.571Z,1025.327773064
2023-02-27T09:02:32.609Z,1025.4293644279999
2023-02-27T09:03:32.515Z,1025.530955792
2023-02-27T09:04:32.506Z,1025.6325471559999
2023-02-27T09:05:32.653Z,1025.2261816999999
2023-02-27T09:06:33.055Z,1025.530955792
2023-02-27T09:07:32.511Z,1025.4293644279999
2023-02-27T09:08:32.515Z,1025.327773064
2023-02-27T09:09:32.550Z,1025.937321248
2023-02-27T09:10:32.548Z,1026.140503976
2023-02-27T09:11:32.553Z,1025.937321248
2023-02-27T09:12:32.504Z,1025.835729884
2023-02-27T09:13:32.540Z,1026.208231552
2023-02-27T09:14:32.564Z,1025.835729884
2023-02-27T09:15:32.593Z,1025.937321248
2023-02-27T09:16:32.627Z,1025.835729884
2023-02-27T09:17:32.524Z,1025.937321248
2023-02-27T09:18:32.519Z,1026.0389126119999
2023-02-27T09:19:33.204Z,1025.937321248
2023-02-27T09:20:32.509Z,1026.0389126119999
2023-02-27T09:21:32.539Z,1025.937321248
2023-02-27T09:22:32.500Z,1025.835729884
2023-02-27T09:23:32.500Z,1025.835729884
2023-02-27T09:24:32.508Z,1026.0389126119999
2023-02-27T09:25:32.508Z,1025.937321248
2023-02-27T09:26:44.269Z,1025.835729884
2023-02-27T09:27:32.541Z,1025.937321248
2023-02-27T09:28:32.558Z,1025.937321248
2023-02-27T09:29:33.310Z,1026.0389126119999
2023-02-27T09:30:32.512Z,1025.937321248
2023-02-27T09:31:33.579Z,1025.937321248
2023-02-27T09:32:32.706Z,1025.835729884
2023-02-27T09:33:32.526Z,1025.937321248
2023-02-27T09:34:32.498Z,1025.835729884
2023-02-27T09:35:32.582Z,1025.835729884
2023-02-27T09:36:32.547Z,1026.0389126119999
2023-02-27T09:37:32.501Z,1026.0389126119999
2023-02-27T09:38:32.489Z,1025.835729884
2023-02-27T09:39:33.533Z,1026.140503976
2023-02-27T09:40:32.524Z,1026.0389126119999
2023-02-27T09:41:32.508Z,1025.937321248
2023-02-27T09:42:32.509Z,1026.0389126119999
2023-02-27T09:43:32.519Z,1026.140503976
2023-02-27T09:44:45.123Z,1026.140503976
2023-02-27T09:45:32.527Z,1025.73413852
2023-02-27T09:46:32.512Z,1025.835729884
2023-02-27T09:47:32.504Z,1025.937321248